Time;durP1;ratioP1;P1;durP2;ratioP2;P2;SDS_P1;SDS_P2;PMS_P1;PMS_P2;Temp;Humidity;BMP_temperature;BMP_pressure;BME280_temperature;BME280_humidity;BME280_pressure;Samples;Min_cycle;Max_cycle;Signal;HPM_P1;HPM_P2
2022/12/06 00:00:10;;;;;;;7.77;7.57;;;2.30;99.90;;;;;;5045222;28;20254;-81
2022/12/06 00:05:06;;;;;;;7.63;7.43;;;2.40;99.90;;;;;;5071563;22;20247;-80
2022/12/06 00:07:35;;;;;;;7.73;7.53;;;2.40;99.90;;;;;;5055330;28;20298;-80
2022/12/06 00:10:02;;;;;;;7.70;7.50;;;2.40;99.90;;;;;;5063661;28;20258;-79
2022/12/06 00:12:30;;;;;;;7.70;7.50;;;2.40;99.90;;;;;;5063035;28;20326;-79
2022/12/06 00:14:57;;;;;;;7.80;7.60;;;2.50;99.90;;;;;;5060353;28;20261;-79
2022/12/06 00:17:28;;;;;;;7.60;7.40;;;2.40;99.90;;;;;;5060614;28;20235;-80
2022/12/06 00:19:55;;;;;;;7.50;7.30;;;2.40;99.90;;;;;;5061051;28;20231;-79
2022/12/06 00:22:25;;;;;;;7.33;7.13;;;2.40;99.90;;;;;;5060093;28;20238;-80
2022/12/06 00:24:52;;;;;;;7.80;7.60;;;2.40;99.90;;;;;;5062594;28;20288;-80
2022/12/06 00:27:20;;;;;;;7.80;7.60;;;2.30;99.90;;;;;;5063745;28;20251;-80
2022/12/06 00:29:48;;;;;;;7.80;7.60;;;2.20;99.90;;;;;;5056727;28;20325;-80
2022/12/06 00:32:15;;;;;;;7.30;7.10;;;2.20;99.90;;;;;;5065059;28;20238;-80
2022/12/06 00:34:43;;;;;;;7.37;7.17;;;2.20;99.90;;;;;;5070792;28;20299;-79
2022/12/06 00:37:11;;;;;;;7.47;7.27;;;2.20;99.90;;;;;;5060940;28;20349;-80
2022/12/06 00:39:46;;;;;;;7.50;7.30;;;2.20;99.90;;;;;;5063402;28;20239;-79
2022/12/06 00:42:14;;;;;;;7.23;7.03;;;2.20;99.90;;;;;;5064362;28;20315;-80
2022/12/06 00:44:42;;;;;;;7.40;7.20;;;2.30;99.90;;;;;;5062030;28;20283;-79
2022/12/06 00:47:09;;;;;;;7.10;6.90;;;2.20;99.90;;;;;;5062493;28;20258;-79
2022/12/06 00:49:37;;;;;;;7.03;6.83;;;2.30;99.90;;;;;;5062605;28;20250;-79
2022/12/06 00:52:05;;;;;;;7.20;7.00;;;2.20;99.90;;;;;;5062114;28;20234;-78
2022/12/06 00:54:32;;;;;;;7.30;7.10;;;2.20;99.90;;;;;;5062055;28;20239;-78
2022/12/06 00:57:01;;;;;;;7.47;7.27;;;2.20;99.90;;;;;;5062649;28;20250;-79
2022/12/06 00:59:29;;;;;;;7.40;7.20;;;2.10;99.90;;;;;;5070066;28;20258;-80
2022/12/06 01:01:56;;;;;;;7.40;7.20;;;2.10;99.90;;;;;;5063995;28;20329;-79
2022/12/06 01:04:24;;;;;;;7.40;7.20;;;2.10;99.90;;;;;;5062808;28;20234;-79
2022/12/06 01:06:52;;;;;;;7.30;7.10;;;2.10;99.90;;;;;;5062595;28;20243;-80
2022/12/06 01:09:19;;;;;;;7.50;7.30;;;2.00;99.90;;;;;;5063822;28;20227;-79
2022/12/06 01:11:47;;;;;;;7.60;7.40;;;2.10;99.90;;;;;;5061171;28;20234;-79
2022/12/06 01:14:17;;;;;;;7.30;7.10;;;2.10;99.90;;;;;;5063228;28;20281;-80
2022/12/06 01:16:44;;;;;;;7.30;7.10;;;2.10;99.90;;;;;;5061002;28;20258;-78
2022/12/06 01:19:14;;;;;;;7.20;7.00;;;2.10;99.90;;;;;;5059833;28;20266;-80
2022/12/06 01:21:43;;;;;;;7.17;6.97;;;2.20;99.90;;;;;;5061688;28;20246;-79
2022/12/06 01:24:10;;;;;;;7.40;7.20;;;2.30;99.90;;;;;;5063141;28;20288;-78
2022/12/06 01:26:38;;;;;;;7.20;7.00;;;2.30;99.90;;;;;;5060074;28;20243;-80
2022/12/06 01:29:06;;;;;;;7.27;7.07;;;2.40;99.90;;;;;;5059633;28;20227;-79
2022/12/06 01:31:35;;;;;;;7.20;7.00;;;2.40;99.90;;;;;;5060312;28;20342;-79
2022/12/06 01:34:04;;;;;;;6.90;6.70;;;2.40;99.90;;;;;;5061013;28;20219;-79
2022/12/06 01:36:31;;;;;;;7.17;6.97;;;2.40;99.90;;;;;;5062159;28;20223;-80
2022/12/06 01:39:05;;;;;;;7.40;7.20;;;2.40;99.90;;;;;;5061137;28;20310;-80
2022/12/06 01:41:35;;;;;;;7.30;7.10;;;2.50;99.90;;;;;;5064212;28;20246;-79
2022/12/06 01:46:42;;;;;;;7.20;7.00;;;2.50;99.90;;;;;;5088551;28;20222;-79
2022/12/06 01:49:18;;;;;;;7.13;6.93;;;2.50;99.90;;;;;;5082484;28;20317;-80
2022/12/06 01:51:51;;;;;;;7.00;6.80;;;2.50;99.90;;;;;;5079775;28;20286;-79
2022/12/06 01:54:21;;;;;;;7.30;7.10;;;2.60;99.90;;;;;;5078953;28;20248;-79
2022/12/06 01:56:51;;;;;;;7.00;6.80;;;2.60;99.90;;;;;;5079686;28;20246;-79
2022/12/06 01:59:20;;;;;;;7.10;6.90;;;2.60;99.90;;;;;;5080031;28;20312;-79
2022/12/06 02:01:50;;;;;;;6.93;6.73;;;2.60;99.90;;;;;;5079815;28;20250;-80
2022/12/06 02:04:19;;;;;;;6.87;6.67;;;2.60;99.90;;;;;;5080289;28;20386;-80
2022/12/06 02:06:47;;;;;;;7.10;6.90;;;2.60;99.90;;;;;;5081653;28;20230;-79
2022/12/06 02:09:17;;;;;;;7.23;7.03;;;2.70;99.90;;;;;;5088235;28;20234;-78
2022/12/06 02:11:46;;;;;;;7.17;6.97;;;2.70;99.90;;;;;;5091807;28;20316;-79
2022/12/06 02:14:18;;;;;;;7.00;6.80;;;2.70;99.90;;;;;;5092015;28;20230;-80
2022/12/06 02:17:12;;;;;;;6.90;6.70;;;2.70;99.90;;;;;;5084040;28;20321;-79
2022/12/06 02:20:06;;;;;;;7.00;6.80;;;2.70;99.90;;;;;;5080783;28;20276;-80
2022/12/06 02:23:00;;;;;;;7.00;6.80;;;2.80;99.90;;;;;;5079561;28;20325;-80
2022/12/06 02:26:19;;;;;;;6.97;6.77;;;2.80;99.90;;;;;;5093635;28;20202;-80
2022/12/06 02:29:31;;;;;;;7.20;7.00;;;2.80;99.90;;;;;;5067417;28;20261;-80
2022/12/06 02:32:06;;;;;;;7.00;6.80;;;2.70;99.90;;;;;;5078750;28;20256;-78
2022/12/06 02:34:44;;;;;;;6.90;6.70;;;2.70;99.90;;;;;;5080172;28;20225;-79
2022/12/06 02:37:20;;;;;;;7.10;6.90;;;2.80;99.90;;;;;;5080754;28;20303;-80
2022/12/06 02:39:52;;;;;;;7.30;7.10;;;2.80;99.90;;;;;;5080268;28;20234;-80
2022/12/06 02:42:25;;;;;;;7.10;6.90;;;2.80;99.90;;;;;;5080518;28;20234;-81
2022/12/06 02:44:56;;;;;;;7.10;6.90;;;2.80;99.90;;;;;;5080293;28;20336;-79
2022/12/06 02:47:34;;;;;;;6.97;6.77;;;2.70;99.90;;;;;;5079268;28;20236;-79
2022/12/06 02:50:08;;;;;;;7.23;7.03;;;2.80;99.90;;;;;;5079463;28;20250;-79
2022/12/06 02:52:41;;;;;;;7.10;6.90;;;2.80;99.90;;;;;;5079022;28;20245;-79
2022/12/06 02:55:12;;;;;;;7.00;6.80;;;2.70;99.90;;;;;;5082268;28;20234;-80
2022/12/06 02:57:45;;;;;;;7.03;6.83;;;2.70;99.90;;;;;;5082803;28;20225;-79
2022/12/06 03:00:33;;;;;;;7.07;6.87;;;2.70;99.90;;;;;;5088478;28;20261;-80
2022/12/06 03:03:26;;;;;;;6.90;6.70;;;2.70;99.90;;;;;;5095208;28;20268;-80
2022/12/06 03:06:28;;;;;;;7.10;6.90;;;2.70;99.90;;;;;;5095920;28;20290;-79
2022/12/06 03:09:09;;;;;;;7.10;6.90;;;2.80;99.90;;;;;;5078759;28;20264;-79
2022/12/06 03:11:49;;;;;;;7.00;6.80;;;2.80;99.90;;;;;;5092759;28;20234;-80
2022/12/06 03:14:22;;;;;;;7.00;6.80;;;2.80;99.90;;;;;;5083546;28;20249;-80
2022/12/06 03:16:58;;;;;;;7.00;6.80;;;2.80;99.90;;;;;;5084680;28;20238;-79
2022/12/06 03:19:29;;;;;;;7.00;6.80;;;2.80;99.90;;;;;;5083991;28;20226;-79
2022/12/06 03:22:04;;;;;;;7.20;7.00;;;2.80;99.90;;;;;;5084398;28;20286;-80
2022/12/06 03:24:38;;;;;;;7.10;6.90;;;2.80;99.90;;;;;;5083847;28;20229;-80
2022/12/06 03:27:10;;;;;;;7.17;6.97;;;2.70;99.90;;;;;;5082943;28;20224;-80
2022/12/06 03:29:42;;;;;;;7.10;6.90;;;2.70;99.90;;;;;;5081078;28;20718;-80
2022/12/06 03:32:11;;;;;;;7.00;6.80;;;2.70;99.90;;;;;;5080758;28;20287;-79
2022/12/06 03:34:47;;;;;;;7.00;6.80;;;2.70;99.90;;;;;;5081456;28;20273;-80
2022/12/06 03:37:20;;;;;;;7.20;7.00;;;2.70;99.90;;;;;;5094375;28;20304;-79
2022/12/06 03:39:56;;;;;;;7.10;6.90;;;2.70;99.90;;;;;;5085196;28;20281;-80
2022/12/06 03:42:24;;;;;;;7.20;7.00;;;2.70;99.90;;;;;;5083575;28;20225;-79
2022/12/06 03:44:52;;;;;;;7.20;7.00;;;2.70;99.90;;;;;;5082621;28;20313;-79
2022/12/06 03:47:30;;;;;;;7.10;6.90;;;2.70;99.90;;;;;;5079155;28;20240;-80
2022/12/06 03:50:04;;;;;;;7.20;7.00;;;2.70;99.90;;;;;;5079761;28;20312;-79
2022/12/06 03:52:31;;;;;;;7.23;7.03;;;2.80;99.90;;;;;;5079096;28;20222;-80
2022/12/06 03:54:59;;;;;;;7.40;7.20;;;2.80;99.90;;;;;;5079378;28;20329;-80
2022/12/06 03:57:27;;;;;;;7.20;7.00;;;2.80;99.90;;;;;;5081942;28;20222;-80
2022/12/06 03:59:55;;;;;;;7.40;7.20;;;2.80;99.90;;;;;;5083358;28;20222;-80
2022/12/06 04:02:22;;;;;;;7.13;6.93;;;2.80;99.90;;;;;;5084111;28;20236;-79
2022/12/06 04:04:50;;;;;;;7.40;7.20;;;2.80;99.90;;;;;;5084086;28;20740;-80
2022/12/06 04:07:20;;;;;;;7.50;7.30;;;2.80;99.90;;;;;;5085055;28;20222;-79
2022/12/06 04:09:55;;;;;;;7.27;7.07;;;2.80;99.90;;;;;;5083442;28;20253;-80
2022/12/06 04:15:11;;;;;;;7.30;7.10;;;2.90;99.90;;;;;;5083958;28;20203;-79
2022/12/06 04:20:24;;;;;;;7.20;7.00;;;2.90;99.90;;;;;;5084146;28;20250;-79
2022/12/06 04:23:05;;;;;;;7.10;6.90;;;2.90;99.90;;;;;;5082919;28;20264;-79
2022/12/06 04:25:34;;;;;;;7.30;7.10;;;2.90;99.90;;;;;;5083181;28;20264;-80
2022/12/06 04:39:04;;;;;;;6.97;6.77;;;2.80;99.90;;;;;;5084386;28;20280;-79
2022/12/06 04:44:17;;;;;;;7.13;6.93;;;2.80;99.90;;;;;;5088707;28;20226;-79
2022/12/06 04:46:45;;;;;;;6.83;6.63;;;2.80;99.90;;;;;;5088013;28;20234;-80
2022/12/06 04:49:13;;;;;;;7.10;6.90;;;2.80;99.90;;;;;;5084135;28;20294;-79
2022/12/06 04:51:40;;;;;;;6.87;6.67;;;2.80;99.90;;;;;;5084209;28;20222;-79
2022/12/06 04:54:09;;;;;;;6.80;6.60;;;2.80;99.90;;;;;;5083774;28;20262;-79
2022/12/06 04:56:37;;;;;;;6.80;6.60;;;2.80;99.90;;;;;;5084620;28;20227;-79
2022/12/06 04:59:04;;;;;;;6.67;6.47;;;2.80;99.90;;;;;;5086790;28;20274;-79
2022/12/06 05:01:32;;;;;;;6.83;6.63;;;2.70;99.90;;;;;;5087881;28;20230;-80
2022/12/06 05:04:00;;;;;;;6.60;6.40;;;2.70;99.90;;;;;;5094414;28;20264;-79
2022/12/06 05:06:27;;;;;;;6.60;6.40;;;2.70;99.90;;;;;;5087500;28;20225;-79
2022/12/06 05:08:55;;;;;;;6.60;6.40;;;2.80;99.90;;;;;;5082620;28;20298;-78
2022/12/06 05:11:24;;;;;;;6.80;6.60;;;2.70;99.90;;;;;;5089174;28;20226;-78
2022/12/06 05:13:52;;;;;;;6.73;6.53;;;2.80;99.90;;;;;;5084447;28;20329;-79
2022/12/06 05:16:20;;;;;;;6.50;6.30;;;2.80;99.90;;;;;;5084275;28;20321;-78
2022/12/06 05:18:47;;;;;;;6.60;6.40;;;2.80;99.90;;;;;;5087561;28;20227;-79
2022/12/06 05:21:18;;;;;;;6.80;6.60;;;2.80;99.90;;;;;;5099893;28;20286;-78
2022/12/06 05:23:46;;;;;;;6.83;6.63;;;2.80;99.90;;;;;;5098735;28;20251;-79
2022/12/06 05:26:18;;;;;;;6.50;6.30;;;2.80;99.90;;;;;;5094215;28;20230;-79
2022/12/06 05:28:49;;;;;;;6.70;6.50;;;2.90;99.90;;;;;;5077653;28;20265;-79
2022/12/06 05:31:17;;;;;;;6.80;6.60;;;2.90;99.90;;;;;;5077195;28;20227;-78
2022/12/06 05:33:46;;;;;;;6.63;6.43;;;3.00;99.90;;;;;;5089421;28;20237;-79
2022/12/06 05:36:16;;;;;;;6.50;6.30;;;3.00;99.90;;;;;;5097657;28;20238;-78
2022/12/06 05:38:43;;;;;;;6.73;6.53;;;3.10;99.90;;;;;;5095721;28;20226;-79
2022/12/06 05:41:13;;;;;;;7.00;6.80;;;3.20;99.90;;;;;;5096441;28;20206;-78
2022/12/06 05:43:42;;;;;;;7.10;6.90;;;3.20;99.90;;;;;;5096773;28;20298;-78
2022/12/06 05:46:12;;;;;;;7.00;6.80;;;3.30;99.90;;;;;;5097361;28;21049;-79
2022/12/06 05:48:40;;;;;;;7.00;6.80;;;3.30;99.90;;;;;;5091839;28;20241;-79
2022/12/06 05:51:07;;;;;;;6.90;6.70;;;3.40;99.90;;;;;;5085575;28;20279;-79
2022/12/06 05:53:35;;;;;;;6.90;6.70;;;3.40;99.90;;;;;;5089714;28;20241;-79
2022/12/06 05:56:08;;;;;;;6.70;6.50;;;3.40;99.90;;;;;;5096986;28;20237;-79
2022/12/06 05:58:36;;;;;;;7.00;6.80;;;3.40;99.90;;;;;;5094326;28;20245;-79
2022/12/06 06:01:06;;;;;;;7.03;6.83;;;3.50;99.90;;;;;;5094382;28;20241;-79
2022/12/06 06:03:35;;;;;;;7.20;7.00;;;3.40;99.90;;;;;;5119664;22;20307;-83
2022/12/06 06:06:05;;;;;;;6.80;6.60;;;3.50;99.90;;;;;;5044202;28;20236;-81
2022/12/06 06:08:35;;;;;;;6.40;6.20;;;3.50;99.90;;;;;;5049882;28;20236;-82
2022/12/06 06:11:04;;;;;;;6.30;6.10;;;3.50;99.90;;;;;;5048553;28;20227;-82
2022/12/06 06:13:33;;;;;;;6.80;6.60;;;3.50;99.90;;;;;;5046417;28;20269;-83
2022/12/06 06:16:05;;;;;;;6.50;6.30;;;3.50;99.90;;;;;;5045420;28;20285;-82
2022/12/06 06:18:34;;;;;;;6.90;6.70;;;3.60;99.90;;;;;;5046136;28;20234;-82
2022/12/06 06:21:02;;;;;;;6.90;6.70;;;3.60;99.90;;;;;;5043389;28;20227;-82
2022/12/06 06:23:31;;;;;;;7.37;7.17;;;3.60;99.90;;;;;;5045027;28;20245;-82
2022/12/06 06:26:01;;;;;;;7.23;7.03;;;3.60;99.90;;;;;;5045053;28;20287;-84
2022/12/06 06:28:30;;;;;;;7.37;7.17;;;3.60;99.90;;;;;;5044489;28;20243;-80
2022/12/06 06:30:59;;;;;;;7.30;7.10;;;3.60;99.90;;;;;;5044710;28;20303;-83
2022/12/06 06:33:31;;;;;;;7.00;6.80;;;3.60;99.90;;;;;;5045247;28;20304;-83
2022/12/06 06:36:01;;;;;;;7.20;7.00;;;3.60;99.90;;;;;;5048032;28;20295;-84
2022/12/06 06:38:30;;;;;;;6.90;6.70;;;3.70;99.90;;;;;;5047455;28;20227;-84
2022/12/06 06:41:06;;;;;;;7.00;6.80;;;3.70;99.90;;;;;;5046127;28;20230;-83
2022/12/06 06:43:36;;;;;;;6.80;6.60;;;3.80;99.90;;;;;;5045345;28;20241;-84
2022/12/06 06:46:07;;;;;;;6.90;6.70;;;3.80;99.90;;;;;;5045390;28;20238;-82
2022/12/06 06:48:37;;;;;;;6.70;6.50;;;3.70;99.90;;;;;;5044746;28;20282;-83
2022/12/06 06:53:50;;;;;;;7.27;7.07;;;3.50;99.90;;;;;;5028588;28;20305;-84
2022/12/06 06:56:24;;;;;;;7.10;6.90;;;3.50;99.90;;;;;;5045043;28;20235;-84
2022/12/06 06:58:52;;;;;;;7.00;6.80;;;3.50;99.90;;;;;;5043273;28;20242;-82
2022/12/06 07:01:22;;;;;;;7.30;7.10;;;3.50;99.90;;;;;;5043183;28;20277;-82
2022/12/06 07:03:51;;;;;;;7.10;6.90;;;3.50;99.90;;;;;;5043069;28;20290;-82
2022/12/06 07:06:20;;;;;;;7.20;7.00;;;3.50;99.90;;;;;;5044739;28;20246;-83
2022/12/06 07:08:58;;;;;;;7.00;6.80;;;3.50;99.90;;;;;;5044120;28;20267;-82
2022/12/06 07:11:27;;;;;;;7.13;6.93;;;3.50;99.90;;;;;;5043587;28;20231;-82
2022/12/06 07:13:58;;;;;;;6.90;6.70;;;3.60;99.90;;;;;;5042191;28;20242;-84
2022/12/06 07:19:11;;;;;;;7.20;7.00;;;3.60;99.90;;;;;;5041921;28;20223;-83
2022/12/06 07:21:58;;;;;;;7.40;7.20;;;3.60;99.90;;;;;;5043914;28;20234;-84
2022/12/06 07:24:28;;;;;;;7.40;7.20;;;3.60;99.90;;;;;;5049615;28;20294;-86
2022/12/06 07:26:58;;;;;;;7.10;6.90;;;3.60;99.90;;;;;;5057519;28;20227;-85
2022/12/06 07:29:26;;;;;;;7.00;6.80;;;3.60;99.90;;;;;;5047026;28;20246;-86
2022/12/06 07:31:56;;;;;;;7.10;6.90;;;3.60;99.90;;;;;;5039807;28;20258;-86
2022/12/06 07:34:26;;;;;;;6.80;6.60;;;3.60;99.90;;;;;;5040198;28;20231;-86
2022/12/06 07:37:05;;;;;;;6.70;6.50;;;3.60;99.90;;;;;;5040535;28;20282;-85
2022/12/06 07:39:33;;;;;;;6.73;6.53;;;3.60;99.90;;;;;;5041444;28;20235;-85
2022/12/06 07:47:45;;;;;;;6.60;6.40;;;3.60;99.90;;;;;;5040766;28;20241;-85
2022/12/06 07:53:14;;;;;;;6.90;6.70;;;3.70;99.90;;;;;;5040391;28;20687;-85
2022/12/06 07:55:45;;;;;;;6.80;6.60;;;3.70;99.90;;;;;;5042217;28;20223;-85
2022/12/06 07:58:12;;;;;;;6.63;6.43;;;3.70;99.90;;;;;;5041934;28;20231;-85
2022/12/06 08:00:41;;;;;;;6.87;6.67;;;3.70;99.90;;;;;;5042134;28;20239;-85
2022/12/06 08:03:10;;;;;;;6.83;6.63;;;3.70;99.90;;;;;;5042541;28;20243;-85
2022/12/06 08:05:39;;;;;;;6.53;6.33;;;3.70;99.90;;;;;;5045967;28;20255;-85
2022/12/06 08:08:19;;;;;;;6.53;6.33;;;3.80;99.90;;;;;;5043588;28;20228;-86
2022/12/06 08:10:48;;;;;;;6.33;6.13;;;3.80;99.90;;;;;;5043810;28;20269;-85
2022/12/06 08:13:18;;;;;;;6.50;6.30;;;3.90;99.90;;;;;;5055828;28;20230;-86
2022/12/06 08:15:47;;;;;;;6.47;6.27;;;3.80;99.90;;;;;;5047991;28;20275;-85
2022/12/06 08:18:15;;;;;;;6.13;6.03;;;3.90;99.90;;;;;;5044120;28;20235;-85
2022/12/06 08:20:54;;;;;;;6.73;6.53;;;3.90;99.90;;;;;;5043958;28;20228;-85
2022/12/06 08:23:32;;;;;;;6.70;6.50;;;3.90;99.90;;;;;;5045021;28;20235;-85
2022/12/06 08:26:01;;;;;;;6.80;6.60;;;4.00;99.90;;;;;;5044434;28;20274;-85
2022/12/06 08:28:33;;;;;;;6.47;6.27;;;4.00;99.90;;;;;;5046539;28;20227;-85
2022/12/06 08:31:11;;;;;;;6.80;6.60;;;4.10;99.90;;;;;;5048963;28;20291;-85
2022/12/06 08:33:39;;;;;;;6.40;6.20;;;4.20;99.90;;;;;;5045999;28;20223;-86
2022/12/06 08:36:17;;;;;;;6.73;6.53;;;4.20;99.90;;;;;;5048148;28;20227;-86
2022/12/06 08:39:06;;;;;;;6.60;6.40;;;4.20;99.90;;;;;;5045849;28;20231;-86
2022/12/06 08:44:20;;;;;;;6.50;6.30;;;4.30;99.90;;;;;;5044034;28;20283;-86
2022/12/06 08:46:59;;;;;;;6.37;6.17;;;4.40;99.90;;;;;;5046780;28;20239;-86
2022/12/06 08:49:29;;;;;;;6.60;6.40;;;4.40;99.90;;;;;;5047234;28;20234;-86
2022/12/06 08:51:58;;;;;;;6.60;6.40;;;4.30;99.90;;;;;;5046543;28;20258;-85
2022/12/06 08:54:36;;;;;;;6.53;6.33;;;4.40;99.90;;;;;;5046317;28;20247;-86
2022/12/06 08:57:07;;;;;;;6.70;6.50;;;4.40;99.90;;;;;;5047315;28;20291;-86
2022/12/06 08:59:45;;;;;;;6.63;6.43;;;4.40;99.90;;;;;;5045203;28;20236;-85
2022/12/06 09:02:14;;;;;;;6.90;6.70;;;4.40;99.90;;;;;;5044602;28;20275;-85
2022/12/06 09:04:44;;;;;;;6.90;6.70;;;4.40;99.90;;;;;;5047870;28;20247;-86
2022/12/06 09:07:12;;;;;;;7.00;6.80;;;4.30;99.90;;;;;;5048665;28;20242;-85
2022/12/06 09:09:51;;;;;;;6.80;6.60;;;4.30;99.90;;;;;;5049588;28;20219;-85
2022/12/06 09:12:19;;;;;;;6.97;6.77;;;4.40;99.90;;;;;;5050660;28;20230;-86
2022/12/06 09:14:49;;;;;;;6.83;6.63;;;4.40;99.90;;;;;;5048855;28;20239;-85
2022/12/06 09:17:19;;;;;;;6.83;6.63;;;4.40;99.90;;;;;;5046320;28;20957;-84
2022/12/06 09:19:48;;;;;;;7.20;7.00;;;4.30;99.90;;;;;;5046025;28;20295;-85
2022/12/06 09:22:18;;;;;;;6.90;6.70;;;4.30;99.90;;;;;;5045812;28;20291;-85
2022/12/06 09:24:49;;;;;;;6.67;6.47;;;4.30;99.90;;;;;;5045113;28;20239;-85
2022/12/06 09:27:18;;;;;;;6.80;6.60;;;4.30;99.90;;;;;;5044784;28;20238;-85
2022/12/06 09:29:46;;;;;;;6.80;6.60;;;4.30;99.90;;;;;;5044873;28;20227;-85
2022/12/06 09:32:17;;;;;;;6.70;6.50;;;4.30;99.90;;;;;;5044641;28;20301;-85
2022/12/06 09:34:44;;;;;;;6.67;6.47;;;4.40;99.90;;;;;;5044748;28;20247;-85
2022/12/06 09:37:14;;;;;;;6.80;6.60;;;4.40;99.90;;;;;;5044710;28;20235;-84
2022/12/06 09:39:55;;;;;;;6.80;6.60;;;4.50;99.90;;;;;;5044886;28;20227;-85
2022/12/06 09:42:49;;;;;;;7.00;6.80;;;4.50;99.90;;;;;;5044046;28;20274;-84
2022/12/06 09:48:57;;;;;;;6.90;6.70;;;4.50;99.90;;;;;;5045540;28;20325;-85
2022/12/06 09:51:44;;;;;;;6.93;6.73;;;4.50;99.90;;;;;;5043468;28;20342;-85
2022/12/06 09:54:33;;;;;;;6.70;6.50;;;4.50;99.90;;;;;;5045249;28;20322;-85
2022/12/06 09:57:14;;;;;;;7.20;7.00;;;4.50;99.90;;;;;;5025801;28;20227;-85
2022/12/06 09:59:59;;;;;;;6.80;6.60;;;4.50;99.90;;;;;;5026184;28;21063;-85
2022/12/06 10:03:03;;;;;;;6.50;6.30;;;4.50;99.90;;;;;;5026031;28;20263;-85
2022/12/06 10:05:54;;;;;;;6.73;6.53;;;4.50;99.90;;;;;;5024379;28;20239;-85
2022/12/06 10:08:39;;;;;;;6.90;6.70;;;4.50;99.90;;;;;;5025969;28;20279;-84
2022/12/06 10:11:24;;;;;;;7.10;6.90;;;4.60;99.90;;;;;;5029942;28;20307;-85
2022/12/06 10:14:11;;;;;;;6.90;6.70;;;4.60;99.90;;;;;;5026246;28;20256;-84
2022/12/06 10:17:00;;;;;;;7.20;7.00;;;4.60;99.90;;;;;;5025196;28;20255;-84
2022/12/06 10:19:46;;;;;;;7.20;7.00;;;4.60;99.90;;;;;;5032198;28;20220;-84
2022/12/06 10:22:32;;;;;;;7.30;7.10;;;4.60;99.90;;;;;;5035344;28;20298;-84
2022/12/06 10:25:12;;;;;;;7.30;7.10;;;4.50;99.90;;;;;;5028003;28;20236;-85
2022/12/06 10:27:49;;;;;;;7.20;7.00;;;4.50;99.90;;;;;;5027208;28;20232;-84
2022/12/06 10:30:21;;;;;;;7.20;7.00;;;4.50;99.90;;;;;;5025055;28;20236;-84
2022/12/06 10:32:56;;;;;;;7.20;7.00;;;4.50;99.90;;;;;;5026074;28;20292;-84
2022/12/06 10:35:44;;;;;;;6.83;6.63;;;4.50;99.90;;;;;;5041632;28;20241;-84
2022/12/06 10:38:30;;;;;;;6.87;6.67;;;4.50;99.90;;;;;;5048694;28;20229;-84
2022/12/06 10:41:08;;;;;;;6.93;6.73;;;4.40;99.90;;;;;;5025502;28;20240;-84
2022/12/06 10:43:47;;;;;;;6.70;6.50;;;4.40;99.90;;;;;;5043613;28;20239;-84
2022/12/06 10:56:41;;;;;;;6.60;6.40;;;4.60;99.90;;;;;;4974167;28;20232;-87
2022/12/06 10:59:27;;;;;;;6.63;6.43;;;4.60;99.90;;;;;;5041802;28;20225;-87
2022/12/06 11:02:14;;;;;;;6.90;6.70;;;4.50;99.90;;;;;;5040923;28;20274;-88
2022/12/06 11:04:45;;;;;;;7.00;6.80;;;4.40;99.90;;;;;;5041190;28;20227;-84
2022/12/06 11:07:41;;;;;;;7.00;6.80;;;4.40;99.90;;;;;;5041498;28;20271;-89
2022/12/06 11:11:10;;;;;;;6.77;6.57;;;4.30;99.90;;;;;;5038329;28;20255;-87
2022/12/06 11:20:46;;;;;;;6.90;6.70;;;4.20;99.90;;;;;;5025426;28;20231;-88
2022/12/06 11:23:25;;;;;;;6.57;6.37;;;4.10;99.90;;;;;;5025507;28;20233;-87
2022/12/06 11:26:33;;;;;;;6.50;6.30;;;4.10;99.90;;;;;;5026057;28;20235;-87
2022/12/06 11:29:05;;;;;;;6.67;6.47;;;4.10;99.90;;;;;;5021910;28;20259;-85
2022/12/06 11:31:43;;;;;;;7.07;6.87;;;4.00;99.90;;;;;;5021731;28;20236;-87
2022/12/06 11:34:19;;;;;;;7.23;7.03;;;4.00;99.90;;;;;;5021950;28;20275;-86
2022/12/06 11:39:38;;;;;;;7.00;6.80;;;3.90;99.90;;;;;;5021185;28;20225;-86
2022/12/06 11:42:35;;;;;;;7.10;6.90;;;3.90;99.90;;;;;;5022518;28;20242;-88
2022/12/06 11:51:03;;;;;;;6.90;6.70;;;3.90;99.90;;;;;;5019514;28;20287;-87
2022/12/06 11:53:50;;;;;;;6.80;6.60;;;3.90;99.90;;;;;;5021682;28;20236;-86
2022/12/06 11:56:29;;;;;;;7.00;6.80;;;3.90;99.90;;;;;;5041251;28;20231;-89
2022/12/06 11:59:44;;;;;;;7.03;6.83;;;3.90;99.90;;;;;;5020490;28;20311;-87
2022/12/06 12:02:32;;;;;;;6.90;6.70;;;3.90;99.90;;;;;;5009130;28;20247;-87
2022/12/06 12:05:44;;;;;;;7.10;6.90;;;3.90;99.90;;;;;;5047541;22;20237;-86
2022/12/06 12:08:20;;;;;;;7.00;6.80;;;3.80;99.90;;;;;;5037945;28;20235;-83
2022/12/06 12:14:49;;;;;;;7.10;6.90;;;3.60;99.90;;;;;;5036558;28;20227;-83
2022/12/06 12:20:32;;;;;;;7.10;6.90;;;3.70;99.90;;;;;;5020015;28;20238;-84
2022/12/06 12:23:16;;;;;;;7.20;7.00;;;3.70;99.90;;;;;;5042092;28;20216;-81
2022/12/06 12:26:09;;;;;;;7.50;7.30;;;3.60;99.90;;;;;;5042968;28;20216;-83
2022/12/06 12:29:10;;;;;;;7.40;7.20;;;3.60;99.90;;;;;;5042900;28;20208;-82
2022/12/06 12:32:00;;;;;;;7.63;7.43;;;3.60;99.90;;;;;;5042767;28;20219;-82
2022/12/06 12:40:26;;;;;;;7.60;7.40;;;3.70;99.90;;;;;;4980321;28;20230;-88
2022/12/06 12:43:57;;;;;;;7.63;7.43;;;3.70;99.90;;;;;;5012207;28;20270;-86
2022/12/06 12:50:17;;;;;;;7.37;7.17;;;3.70;99.90;;;;;;5037832;28;20270;-87
2022/12/06 12:53:04;;;;;;;7.40;7.20;;;3.60;99.90;;;;;;5044101;28;20314;-88
2022/12/06 12:56:16;;;;;;;7.20;7.00;;;3.60;99.90;;;;;;5040710;28;20246;-87
2022/12/06 12:59:54;;;;;;;7.30;7.10;;;3.60;99.90;;;;;;5042748;28;20235;-87
2022/12/06 13:02:35;;;;;;;7.37;7.17;;;3.70;99.90;;;;;;5049467;28;20262;-85
2022/12/06 13:05:11;;;;;;;7.43;7.23;;;3.80;99.90;;;;;;5056147;28;20239;-83
2022/12/06 13:15:54;;;;;;;7.53;7.33;;;3.90;99.90;;;;;;5005218;28;20228;-84
2022/12/06 13:36:02;;;;;;;7.50;7.30;;;4.00;99.90;;;;;;5019066;28;20228;-85
2022/12/06 14:11:51;;;;;;;7.40;7.20;;;3.50;99.90;;;;;;4864625;29;20256;-86
2022/12/06 14:14:50;;;;;;;7.67;7.47;;;3.40;99.90;;;;;;4971419;28;20237;-87
2022/12/06 14:17:40;;;;;;;7.20;7.00;;;3.40;99.90;;;;;;5021837;28;20254;-87
2022/12/06 14:24:03;;;;;;;7.20;7.00;;;3.40;99.90;;;;;;5025143;28;20725;-86
2022/12/06 14:26:34;;;;;;;7.60;7.40;;;3.40;99.90;;;;;;5056500;28;20231;-83
2022/12/06 14:29:20;;;;;;;7.70;7.50;;;3.40;99.90;;;;;;5054451;28;20227;-83
2022/12/06 14:34:36;;;;;;;7.23;7.03;;;3.40;99.90;;;;;;5038904;28;20219;-86
2022/12/06 14:38:13;;;;;;;7.30;7.10;;;3.40;99.90;;;;;;5040340;28;20286;-88
2022/12/06 16:13:40;;;;;;;7.40;7.20;;;3.60;99.90;;;;;;5001263;28;20404;-88
2022/12/06 16:45:10;;;;;;;7.07;6.87;;;3.20;99.90;;;;;;5020626;28;20258;-89
2022/12/06 17:23:33;;;;;;;7.70;7.50;;;3.30;99.90;;;;;;5535856;22;15323706;-85
2022/12/06 18:07:00;;;;;;;7.37;7.17;;;3.30;99.90;;;;;;6300492;22;20201;-81
2022/12/06 18:09:28;;;;;;;7.40;7.20;;;3.30;99.90;;;;;;6299341;22;20186;-83
2022/12/06 18:11:56;;;;;;;7.40;7.20;;;3.40;99.90;;;;;;6297222;22;20232;-83
2022/12/06 18:14:25;;;;;;;7.40;7.20;;;3.40;99.90;;;;;;6297412;22;20205;-82
2022/12/06 18:16:54;;;;;;;7.47;7.27;;;3.50;99.90;;;;;;6296436;22;20257;-82
2022/12/06 18:19:23;;;;;;;7.20;7.00;;;3.50;99.90;;;;;;6298470;22;20196;-83
2022/12/06 18:21:53;;;;;;;7.23;7.03;;;3.50;99.90;;;;;;6298681;22;20213;-82
2022/12/06 18:24:25;;;;;;;7.40;7.20;;;3.60;99.90;;;;;;6296122;22;20228;-83
2022/12/06 18:26:53;;;;;;;7.30;7.10;;;3.60;99.90;;;;;;6295356;22;20670;-84
2022/12/06 18:29:23;;;;;;;7.30;7.10;;;3.60;99.90;;;;;;6294689;22;20273;-83
2022/12/06 18:31:51;;;;;;;7.20;7.00;;;3.70;99.90;;;;;;6293325;22;20198;-82
2022/12/06 18:34:20;;;;;;;7.30;7.10;;;3.70;99.90;;;;;;6294254;22;20197;-84
2022/12/06 18:36:52;;;;;;;7.60;7.40;;;3.70;99.90;;;;;;6294093;22;20233;-84
2022/12/06 18:39:23;;;;;;;7.60;7.40;;;3.80;99.90;;;;;;6294091;22;20208;-83
2022/12/06 18:41:57;;;;;;;7.30;7.10;;;3.80;99.90;;;;;;6293039;22;20193;-83
2022/12/06 18:44:28;;;;;;;7.30;7.10;;;3.80;99.90;;;;;;6296480;22;20200;-83
2022/12/06 18:46:58;;;;;;;7.10;6.90;;;3.80;99.90;;;;;;6296571;22;20248;-84
2022/12/06 18:49:26;;;;;;;7.27;7.07;;;3.90;99.90;;;;;;6295798;22;20197;-84
2022/12/06 18:51:56;;;;;;;7.40;7.20;;;3.90;99.90;;;;;;6296571;22;20195;-83
2022/12/06 18:54:26;;;;;;;7.20;7.00;;;3.90;99.90;;;;;;6292789;22;20217;-83
2022/12/06 18:57:02;;;;;;;7.10;6.90;;;3.90;99.90;;;;;;6293062;22;20259;-82
2022/12/06 18:59:36;;;;;;;7.10;6.90;;;3.80;99.90;;;;;;6291033;22;20203;-83
2022/12/06 19:02:04;;;;;;;7.10;6.90;;;3.70;99.90;;;;;;6293322;22;20197;-83
2022/12/06 19:04:31;;;;;;;7.10;6.90;;;3.70;99.90;;;;;;6293736;22;20190;-82
2022/12/06 19:07:01;;;;;;;7.00;6.80;;;3.70;99.90;;;;;;6294193;22;20193;-82
2022/12/06 19:09:29;;;;;;;7.20;7.00;;;3.70;99.90;;;;;;6293336;22;20202;-82
2022/12/06 19:12:03;;;;;;;7.30;7.10;;;3.70;99.90;;;;;;6293064;22;20576;-83
2022/12/06 19:14:31;;;;;;;7.07;6.87;;;3.70;99.90;;;;;;6299840;22;20193;-83
2022/12/06 19:16:58;;;;;;;7.47;7.27;;;3.60;99.90;;;;;;6299509;22;20205;-83
2022/12/06 19:19:27;;;;;;;7.80;7.60;;;3.60;99.90;;;;;;6306071;22;20186;-82
2022/12/06 19:21:56;;;;;;;7.70;7.50;;;3.60;99.90;;;;;;6301211;22;20198;-83
2022/12/06 19:24:28;;;;;;;7.37;7.17;;;3.60;99.90;;;;;;6297565;22;20190;-83
2022/12/06 19:26:58;;;;;;;7.30;7.10;;;3.60;99.90;;;;;;6295254;22;20205;-84